Time,TemperatureF,DewpointF,PressureIn,WindDirection,WindDirectionDegrees,WindSpeedMPH,WindSpeedGustMPH,Humidity,HourlyPrecipIn,Conditions,Clouds,dailyrainin,SoftwareType,DateUTC
2013-08-26 00:11:00,63.6,62.0,30.11,NNE,22,0.0,0.0,95,0.01,,,0.00,weatherlink.com 1.10,2013-08-26 04:11:00,
2013-08-26 00:26:00,63.6,63.0,30.11,NNE,22,0.0,0.0,96,0.01,,,0.00,weatherlink.com 1.10,2013-08-26 04:26:00,
2013-08-26 00:42:00,63.7,63.0,30.10,NNE,22,0.0,0.0,96,0.01,,,0.00,weatherlink.com 1.10,2013-08-26 04:42:00,
2013-08-26 00:57:00,63.7,63.0,30.10,NNE,23,0.0,0.0,96,0.00,,,0.00,weatherlink.com 1.10,2013-08-26 04:57:00,
2013-08-26 01:12:00,63.8,63.0,30.11,NNW,347,0.0,1.0,96,0.02,,,0.02,weatherlink.com 1.10,2013-08-26 05:12:00,
2013-08-26 01:27:00,63.9,63.0,30.10,NE,50,0.0,0.0,96,0.04,,,0.04,weatherlink.com 1.10,2013-08-26 05:27:00,
2013-08-26 01:42:00,63.8,63.0,30.10,NE,50,0.0,1.0,97,0.05,,,0.05,weatherlink.com 1.10,2013-08-26 05:42:00,
2013-08-26 01:57:00,63.9,63.0,30.10,NE,50,0.0,0.0,97,0.08,,,0.08,weatherlink.com 1.10,2013-08-26 05:57:00,
2013-08-26 02:12:00,63.9,63.0,30.09,NE,50,0.0,0.0,97,0.07,,,0.09,weatherlink.com 1.10,2013-08-26 06:12:00,
2013-08-26 02:27:00,63.9,63.0,30.07,SE,140,0.0,2.0,97,0.05,,,0.09,weatherlink.com 1.10,2013-08-26 06:27:00,
2013-08-26 02:42:00,63.5,62.0,30.07,SE,141,0.0,2.0,96,0.04,,,0.09,weatherlink.com 1.10,2013-08-26 06:42:00,
2013-08-26 02:57:00,63.6,63.0,30.07,ENE,65,0.0,1.0,96,0.01,,,0.09,weatherlink.com 1.10,2013-08-26 06:57:00,
2013-08-26 03:12:00,63.6,63.0,30.07,ENE,57,0.0,0.0,97,0.00,,,0.09,weatherlink.com 1.10,2013-08-26 07:12:00,
2013-08-26 03:27:00,63.6,63.0,30.06,SSE,158,0.0,1.0,97,0.00,,,0.09,weatherlink.com 1.10,2013-08-26 07:27:00,
2013-08-26 03:42:00,63.3,62.0,30.05,SW,220,0.0,2.0,96,0.00,,,0.09,weatherlink.com 1.10,2013-08-26 07:42:00,
2013-08-26 03:57:00,63.4,62.0,30.04,SW,220,0.0,1.0,96,0.00,,,0.09,weatherlink.com 1.10,2013-08-26 07:57:00,
2013-08-26 04:12:00,63.3,62.0,30.04,SW,220,0.0,1.0,96,0.00,,,0.09,weatherlink.com 1.10,2013-08-26 08:12:00,
2013-08-26 04:27:00,64.1,62.0,30.03,South,172,0.0,1.0,93,0.00,,,0.09,weatherlink.com 1.10,2013-08-26 08:27:00,
2013-08-26 04:42:00,63.8,62.0,30.03,NE,40,0.0,1.0,94,0.01,,,0.10,weatherlink.com 1.10,2013-08-26 08:42:00,
2013-08-26 04:57:00,63.6,63.0,30.04,NE,40,0.0,0.0,96,0.01,,,0.10,weatherlink.com 1.10,2013-08-26 08:57:00,
2013-08-26 05:12:00,63.9,63.0,30.03,West,277,0.0,1.0,96,0.01,,,0.10,weatherlink.com 1.10,2013-08-26 09:12:00,
2013-08-26 05:27:00,64.0,63.0,30.02,NE,50,1.0,2.0,95,0.01,,,0.10,weatherlink.com 1.10,2013-08-26 09:27:00,
2013-08-26 05:42:00,63.7,62.0,30.03,ESE,120,0.0,1.0,95,0.00,,,0.10,weatherlink.com 1.10,2013-08-26 09:42:00,
2013-08-26 05:57:00,63.9,63.0,30.02,WNW,291,0.0,2.0,96,0.00,,,0.10,weatherlink.com 1.10,2013-08-26 09:57:00,
2013-08-26 06:12:00,64.8,63.0,30.02,WNW,300,0.0,2.0,93,0.00,,,0.10,weatherlink.com 1.10,2013-08-26 10:12:00,
2013-08-26 06:27:00,64.6,63.0,30.02,NW,311,0.0,0.0,94,0.00,,,0.10,weatherlink.com 1.10,2013-08-26 10:27:00,
2013-08-26 06:42:00,64.1,63.0,30.02,East,84,0.0,2.0,95,0.00,,,0.10,weatherlink.com 1.10,2013-08-26 10:42:00,
2013-08-26 06:57:00,64.2,63.0,30.02,ESE,122,0.0,4.0,94,0.00,,,0.10,weatherlink.com 1.10,2013-08-26 10:57:00,
2013-08-26 07:12:00,64.5,63.0,30.02,ESE,103,0.0,3.0,93,0.00,,,0.10,weatherlink.com 1.10,2013-08-26 11:12:00,
2013-08-26 07:27:00,65.8,63.0,30.01,NW,310,0.0,6.0,91,0.00,,,0.10,weatherlink.com 1.10,2013-08-26 11:27:00,
2013-08-26 07:42:00,67.1,63.0,30.02,WSW,248,0.0,6.0,87,0.00,,,0.10,weatherlink.com 1.10,2013-08-26 11:42:00,
2013-08-26 07:57:00,67.4,63.0,30.01,SSW,205,0.0,6.0,86,0.00,,,0.10,weatherlink.com 1.10,2013-08-26 11:57:00,
2013-08-26 08:12:00,68.8,64.0,30.00,WNW,296,0.0,5.0,84,0.00,,,0.10,weatherlink.com 1.10,2013-08-26 12:12:00,
2013-08-26 08:27:00,70.2,65.0,30.00,NNE,16,0.0,2.0,83,0.00,,,0.10,weatherlink.com 1.10,2013-08-26 12:27:00,
2013-08-26 08:42:00,70.9,65.0,30.00,East,84,0.0,1.0,81,0.00,,,0.10,weatherlink.com 1.10,2013-08-26 12:42:00,
2013-08-26 08:57:00,71.6,64.0,29.99,WSW,241,0.0,5.0,78,0.00,,,0.10,weatherlink.com 1.10,2013-08-26 12:57:00,
2013-08-26 09:13:00,74.4,64.0,29.99,West,271,6.0,10.0,71,0.00,,,0.10,weatherlink.com 1.10,2013-08-26 13:13:00,
2013-08-26 09:28:00,74.2,64.0,29.98,SW,229,3.0,10.0,70,0.00,,,0.10,weatherlink.com 1.10,2013-08-26 13:28:00,
2013-08-26 09:43:00,74.5,64.0,29.99,South,182,3.0,7.0,69,0.00,,,0.10,weatherlink.com 1.10,2013-08-26 13:43:00,
2013-08-26 09:58:00,74.2,64.0,29.99,WNW,297,0.0,6.0,70,0.00,,,0.10,weatherlink.com 1.10,2013-08-26 13:58:00,
2013-08-26 10:13:00,72.8,64.0,29.98,WNW,290,0.0,9.0,73,0.00,,,0.10,weatherlink.com 1.10,2013-08-26 14:13:00,
2013-08-26 10:28:00,72.5,63.0,29.98,WNW,292,1.0,10.0,73,0.00,,,0.10,weatherlink.com 1.10,2013-08-26 14:28:00,
2013-08-26 10:43:00,72.3,64.0,29.98,WNW,295,6.0,7.0,75,0.00,,,0.10,weatherlink.com 1.10,2013-08-26 14:43:00,
2013-08-26 10:58:00,72.4,64.0,29.97,WNW,302,2.0,8.0,76,0.00,,,0.10,weatherlink.com 1.10,2013-08-26 14:58:00,
2013-08-26 11:13:00,72.7,64.0,29.97,WNW,299,1.0,7.0,75,0.00,,,0.10,weatherlink.com 1.10,2013-08-26 15:13:00,
2013-08-26 11:28:00,72.6,65.0,29.97,West,269,3.0,5.0,76,0.00,,,0.10,weatherlink.com 1.10,2013-08-26 15:28:00,
2013-08-26 11:43:00,72.4,65.0,29.97,West,268,0.0,3.0,77,0.00,,,0.10,weatherlink.com 1.10,2013-08-26 15:43:00,
2013-08-26 11:58:00,72.3,64.0,29.96,WSW,239,0.0,5.0,76,0.00,,,0.10,weatherlink.com 1.10,2013-08-26 15:58:00,
2013-08-26 12:13:00,72.2,65.0,29.95,West,269,1.0,6.0,77,0.00,,,0.10,weatherlink.com 1.10,2013-08-26 16:13:00,
2013-08-26 12:28:00,72.7,65.0,29.95,WNW,294,3.0,5.0,77,0.00,,,0.10,weatherlink.com 1.10,2013-08-26 16:28:00,
2013-08-26 12:43:00,73.9,66.0,29.94,WSW,243,1.0,5.0,75,0.00,,,0.10,weatherlink.com 1.10,2013-08-26 16:43:00,
2013-08-26 12:58:00,75.0,66.0,29.94,WSW,245,4.0,4.0,74,0.00,,,0.10,weatherlink.com 1.10,2013-08-26 16:58:00,
2013-08-26 13:13:00,75.1,66.0,29.93,SE,136,1.0,5.0,73,0.00,,,0.10,weatherlink.com 1.10,2013-08-26 17:13:00,
2013-08-26 13:28:00,74.7,66.0,29.92,West,274,2.0,6.0,74,0.00,,,0.10,weatherlink.com 1.10,2013-08-26 17:28:00,
2013-08-26 13:43:00,74.6,66.0,29.92,WSW,243,3.0,7.0,75,0.00,,,0.10,weatherlink.com 1.10,2013-08-26 17:43:00,
2013-08-26 13:58:00,74.9,67.0,29.91,SSW,195,2.0,4.0,75,0.00,,,0.10,weatherlink.com 1.10,2013-08-26 17:58:00,
2013-08-26 14:13:00,74.4,66.0,29.91,ENE,61,3.0,5.0,76,0.00,,,0.10,weatherlink.com 1.10,2013-08-26 18:13:00,
2013-08-26 14:28:00,74.5,67.0,29.90,SE,136,2.0,8.0,78,0.00,,,0.10,weatherlink.com 1.10,2013-08-26 18:28:00,
2013-08-26 14:43:00,74.1,67.0,29.90,SE,133,2.0,6.0,79,0.00,,,0.10,weatherlink.com 1.10,2013-08-26 18:43:00,
2013-08-26 14:58:00,74.1,68.0,29.90,East,95,3.0,4.0,80,0.00,,,0.10,weatherlink.com 1.10,2013-08-26 18:58:00,
2013-08-26 15:13:00,74.7,69.0,29.89,ESE,110,2.0,2.0,81,0.00,,,0.10,weatherlink.com 1.10,2013-08-26 19:13:00,
2013-08-26 15:28:00,76.4,68.0,29.89,West,276,2.0,3.0,76,0.00,,,0.10,weatherlink.com 1.10,2013-08-26 19:28:00,
2013-08-26 15:43:00,76.7,70.0,29.88,North,359,0.0,2.0,79,0.00,,,0.10,weatherlink.com 1.10,2013-08-26 19:43:00,
2013-08-26 15:58:00,74.2,70.0,29.88,NNE,28,1.0,2.0,86,0.00,,,0.10,weatherlink.com 1.10,2013-08-26 19:58:00,
2013-08-26 16:14:00,73.9,69.0,29.87,NE,44,1.0,3.0,85,0.00,,,0.10,weatherlink.com 1.10,2013-08-26 20:14:00,
2013-08-26 16:29:00,73.3,70.0,29.87,NE,44,0.0,0.0,89,0.00,,,0.10,weatherlink.com 1.10,2013-08-26 20:29:00,
2013-08-26 16:44:00,73.1,70.0,29.86,NE,44,0.0,0.0,90,0.00,,,0.10,weatherlink.com 1.10,2013-08-26 20:44:00,
2013-08-26 16:59:00,74.4,71.0,29.85,NE,44,0.0,0.0,88,0.00,,,0.10,weatherlink.com 1.10,2013-08-26 20:59:00,
2013-08-26 17:14:00,76.3,70.0,29.85,North,349,0.0,2.0,82,0.00,,,0.10,weatherlink.com 1.10,2013-08-26 21:14:00,
2013-08-26 17:29:00,77.7,70.0,29.85,SSW,200,1.0,2.0,77,0.00,,,0.10,weatherlink.com 1.10,2013-08-26 21:29:00,
2013-08-26 17:44:00,76.2,70.0,29.86,NE,53,0.0,2.0,81,0.00,,,0.10,weatherlink.com 1.10,2013-08-26 21:44:00,
2013-08-26 17:59:00,75.1,71.0,29.85,NE,53,0.0,0.0,87,0.00,,,0.10,weatherlink.com 1.10,2013-08-26 21:59:00,
2013-08-26 18:14:00,74.4,71.0,29.85,NE,38,0.0,2.0,88,0.00,,,0.10,weatherlink.com 1.10,2013-08-26 22:14:00,
2013-08-26 18:29:00,74.3,71.0,29.85,North,4,0.0,2.0,89,0.00,,,0.10,weatherlink.com 1.10,2013-08-26 22:29:00,
2013-08-26 18:44:00,75.8,71.0,29.85,NNE,24,0.0,4.0,84,0.00,,,0.10,weatherlink.com 1.10,2013-08-26 22:44:00,
2013-08-26 18:59:00,76.2,69.0,29.85,WNW,294,3.0,3.0,78,0.00,,,0.10,weatherlink.com 1.10,2013-08-26 22:59:00,
2013-08-26 19:14:00,76.8,69.0,29.84,NW,326,1.0,6.0,76,0.00,,,0.10,weatherlink.com 1.10,2013-08-26 23:14:00,
2013-08-26 19:29:00,76.7,69.0,29.84,WNW,293,3.0,7.0,76,0.00,,,0.10,weatherlink.com 1.10,2013-08-26 23:29:00,
2013-08-26 19:44:00,76.4,69.0,29.84,WNW,297,0.0,5.0,78,0.00,,,0.10,weatherlink.com 1.10,2013-08-26 23:44:00,
2013-08-26 19:59:00,76.4,69.0,29.84,West,264,3.0,6.0,77,0.00,,,0.10,weatherlink.com 1.10,2013-08-26 23:59:00,
2013-08-26 20:14:00,76.4,69.0,29.85,NW,307,3.0,6.0,78,0.00,,,0.10,weatherlink.com 1.10,2013-08-27 00:14:00,
2013-08-26 20:29:00,72.9,70.0,29.85,NNW,338,1.0,3.0,89,0.04,,,0.14,weatherlink.com 1.10,2013-08-27 00:29:00,
2013-08-26 20:44:00,72.3,70.0,29.86,NE,34,1.0,4.0,91,0.05,,,0.15,weatherlink.com 1.10,2013-08-27 00:44:00,
2013-08-26 20:59:00,71.6,69.0,29.87,NNW,337,1.0,5.0,91,0.10,,,0.20,weatherlink.com 1.10,2013-08-27 00:59:00,
2013-08-26 21:14:00,71.5,69.0,29.87,West,278,0.0,3.0,92,0.12,,,0.22,weatherlink.com 1.10,2013-08-27 01:14:00,
2013-08-26 21:29:00,71.0,69.0,29.87,NW,320,1.0,3.0,93,0.08,,,0.22,weatherlink.com 1.10,2013-08-27 01:29:00,
2013-08-26 21:44:00,70.6,69.0,29.87,NNE,29,0.0,3.0,94,0.07,,,0.22,weatherlink.com 1.10,2013-08-27 01:44:00,
2013-08-26 21:59:00,70.5,69.0,29.87,NW,311,0.0,3.0,95,0.02,,,0.23,weatherlink.com 1.10,2013-08-27 01:59:00,
2013-08-26 22:14:00,70.2,69.0,29.87,NNE,22,0.0,1.0,96,0.02,,,0.24,weatherlink.com 1.10,2013-08-27 02:14:00,
2013-08-26 22:29:00,69.9,69.0,29.87,NE,45,1.0,2.0,96,0.02,,,0.24,weatherlink.com 1.10,2013-08-27 02:29:00,
2013-08-26 22:44:00,69.9,69.0,29.88,NNE,14,2.0,2.0,97,0.04,,,0.26,weatherlink.com 1.10,2013-08-27 02:44:00,
2013-08-26 22:59:00,70.1,69.0,29.86,NW,315,0.0,5.0,97,0.27,,,0.50,weatherlink.com 1.10,2013-08-27 02:59:00,
2013-08-26 23:14:00,69.9,69.0,29.87,ENE,75,1.0,3.0,97,0.27,,,0.51,weatherlink.com 1.10,2013-08-27 03:14:00,
2013-08-26 23:29:00,69.9,69.0,29.87,East,91,1.0,5.0,97,0.28,,,0.52,weatherlink.com 1.10,2013-08-27 03:29:00,
2013-08-26 23:44:00,69.8,69.0,29.87,East,87,2.0,4.0,97,0.27,,,0.53,weatherlink.com 1.10,2013-08-27 03:44:00,
2013-08-26 23:59:00,69.6,69.0,29.86,North,5,0.0,3.0,97,0.05,,,0.55,weatherlink.com 1.10,2013-08-27 03:59:00,